createdAt,value
2019-02-23T00:00:45.775Z,99.90
2019-02-23T00:03:33.540Z,99.90
2019-02-23T00:06:01.979Z,99.90
2019-02-23T00:08:49.763Z,99.90
2019-02-23T00:11:18.232Z,99.90
2019-02-23T00:13:46.641Z,99.90
2019-02-23T00:16:15.064Z,99.90
2019-02-23T00:18:43.513Z,99.90
2019-02-23T00:21:12.014Z,99.90
2019-02-23T00:23:40.463Z,99.90
2019-02-23T00:26:28.249Z,99.90
2019-02-23T00:28:56.673Z,99.90
2019-02-23T00:31:25.111Z,99.90
2019-02-23T00:34:12.901Z,99.90
2019-02-23T00:36:41.319Z,99.90
2019-02-23T00:39:09.767Z,99.90
2019-02-23T00:41:38.226Z,99.90
2019-02-23T00:44:06.723Z,99.90
2019-02-23T00:46:35.194Z,99.90
2019-02-23T00:49:03.683Z,99.90
2019-02-23T00:51:32.135Z,99.90
2019-02-23T00:54:00.599Z,99.90
2019-02-23T00:56:48.374Z,99.90
2019-02-23T00:59:16.815Z,99.90
2019-02-23T01:01:45.227Z,99.90
2019-02-23T01:04:13.666Z,99.90
2019-02-23T01:06:42.083Z,99.90
2019-02-23T01:09:10.530Z,99.90
2019-02-23T01:11:58.295Z,99.90
2019-02-23T01:14:26.742Z,99.90
2019-02-23T01:17:14.509Z,99.90
2019-02-23T01:19:55.155Z,99.90
2019-02-23T01:22:23.572Z,99.90
2019-02-23T01:24:52.008Z,99.90
2019-02-23T01:27:39.796Z,99.90
2019-02-23T01:30:10.164Z,99.90
2019-02-23T01:32:38.699Z,99.90
2019-02-23T01:35:07.460Z,99.90
2019-02-23T01:37:35.879Z,99.90
2019-02-23T01:40:09.431Z,99.90
2019-02-23T01:42:37.885Z,99.90
2019-02-23T01:45:07.949Z,99.90
2019-02-23T01:47:55.736Z,99.90
2019-02-23T01:50:24.162Z,99.90
2019-02-23T01:52:52.746Z,99.90
2019-02-23T01:55:40.533Z,99.90
2019-02-23T01:58:08.949Z,99.90
2019-02-23T02:00:56.749Z,99.90
2019-02-23T02:03:25.423Z,99.90
2019-02-23T02:06:13.213Z,99.90
2019-02-23T02:09:00.984Z,99.90
2019-02-23T02:11:41.300Z,99.90
2019-02-23T02:14:22.035Z,99.90
2019-02-23T02:16:50.555Z,99.90
2019-02-23T02:19:18.999Z,99.90
2019-02-23T02:21:47.707Z,99.90
2019-02-23T02:24:16.149Z,99.90
2019-02-23T02:26:44.600Z,99.90
2019-02-23T02:29:13.055Z,99.90
2019-02-23T02:31:41.488Z,99.90
2019-02-23T02:34:12.425Z,99.90
2019-02-23T02:36:42.179Z,99.90
2019-02-23T02:39:12.721Z,99.90
2019-02-23T02:41:41.227Z,99.90
2019-02-23T02:44:09.680Z,99.90
2019-02-23T02:46:38.094Z,99.90
2019-02-23T02:49:06.614Z,99.90
2019-02-23T02:51:35.063Z,99.90
2019-02-23T02:54:03.495Z,99.90
2019-02-23T02:56:51.283Z,99.90
2019-02-23T02:59:19.699Z,99.90
2019-02-23T03:01:48.224Z,99.90
2019-02-23T03:04:35.987Z,99.90
2019-02-23T03:07:04.440Z,99.90
2019-02-23T03:09:32.879Z,99.90
2019-02-23T03:12:01.304Z,99.90
2019-02-23T03:14:29.758Z,99.90
2019-02-23T03:17:17.608Z,99.90
2019-02-23T03:19:46.027Z,99.90
2019-02-23T03:22:14.471Z,99.90
2019-02-23T03:24:42.889Z,99.90
2019-02-23T03:27:30.672Z,99.90
2019-02-23T03:29:59.101Z,99.90
2019-02-23T03:32:46.885Z,99.90
2019-02-23T03:35:15.357Z,99.90
2019-02-23T03:37:43.868Z,99.90
2019-02-23T03:40:31.628Z,99.90
2019-02-23T03:43:01.277Z,99.90
2019-02-23T03:45:49.056Z,99.90
2019-02-23T03:48:37.816Z,99.90
2019-02-23T03:51:18.710Z,99.90
2019-02-23T03:53:59.299Z,99.90
2019-02-23T03:56:27.854Z,99.90
2019-02-23T03:59:08.610Z,99.90
2019-02-23T04:01:37.063Z,99.90
2019-02-23T04:04:05.562Z,99.90
2019-02-23T04:06:34.076Z,99.90
2019-02-23T04:12:11.629Z,99.90
2019-02-23T04:14:40.048Z,99.90
2019-02-23T04:17:08.522Z,99.90
2019-02-23T04:19:56.314Z,99.90
2019-02-23T04:22:24.816Z,99.90
2019-02-23T04:24:53.261Z,99.90
2019-02-23T04:27:21.752Z,99.90
2019-02-23T04:29:50.247Z,99.90
2019-02-23T04:32:38.026Z,99.90
2019-02-23T04:35:06.524Z,99.90
2019-02-23T04:37:34.960Z,99.90
2019-02-23T04:40:03.409Z,99.90
2019-02-23T04:42:31.838Z,99.90
2019-02-23T04:45:00.895Z,99.90
2019-02-23T04:47:49.162Z,99.90
2019-02-23T04:50:29.723Z,99.90
2019-02-23T04:52:58.167Z,99.90
2019-02-23T04:55:26.738Z,99.90
2019-02-23T04:57:55.230Z,99.90
2019-02-23T05:00:35.542Z,99.90
2019-02-23T05:03:03.991Z,99.90
2019-02-23T05:05:32.414Z,99.90
2019-02-23T05:08:00.861Z,99.90
2019-02-23T05:10:29.276Z,99.90
2019-02-23T05:12:57.729Z,99.90
2019-02-23T05:15:26.230Z,99.90
2019-02-23T05:17:55.570Z,99.90
2019-02-23T05:20:43.591Z,99.90
2019-02-23T05:23:12.030Z,99.90
2019-02-23T05:25:40.460Z,99.90
2019-02-23T05:28:08.917Z,99.90
2019-02-23T05:30:37.393Z,99.90
2019-02-23T05:33:05.828Z,99.90
2019-02-23T05:35:34.242Z,99.90
2019-02-23T05:38:02.687Z,99.90
2019-02-23T05:40:50.479Z,99.90
2019-02-23T05:46:21.471Z,99.90
2019-02-23T05:49:09.239Z,99.90
2019-02-23T05:51:39.250Z,99.90
2019-02-23T05:54:07.939Z,99.90
2019-02-23T05:56:36.456Z,99.90
2019-02-23T05:59:24.213Z,99.90
2019-02-23T06:01:52.655Z,99.90
2019-02-23T06:04:21.143Z,99.90
2019-02-23T06:06:49.595Z,99.90
2019-02-23T06:09:18.027Z,99.90
2019-02-23T06:11:46.479Z,99.90
2019-02-23T06:14:14.969Z,99.90
2019-02-23T06:16:43.575Z,99.90
2019-02-23T06:19:12.015Z,99.90
2019-02-23T06:21:52.971Z,99.90
2019-02-23T06:24:10.611Z,99.90
2019-02-23T06:26:39.033Z,99.90
2019-02-23T06:29:07.494Z,99.90
2019-02-23T06:31:35.984Z,99.90
2019-02-23T06:34:23.764Z,99.90
2019-02-23T06:37:11.523Z,99.90
2019-02-23T06:39:52.317Z,99.90
2019-02-23T06:42:20.795Z,99.90
2019-02-23T06:44:49.236Z,99.90
2019-02-23T06:47:37.003Z,99.90
2019-02-23T06:50:06.473Z,99.90
2019-02-23T06:52:34.923Z,99.90
2019-02-23T06:55:22.713Z,99.90
2019-02-23T06:57:51.134Z,99.90
2019-02-23T07:00:38.907Z,99.90
2019-02-23T07:03:19.216Z,99.90
2019-02-23T07:05:59.639Z,99.90
2019-02-23T07:08:28.056Z,99.90
2019-02-23T07:11:17.443Z,99.90
2019-02-23T07:14:05.399Z,99.90
2019-02-23T07:16:33.817Z,99.90
2019-02-23T07:19:02.318Z,99.90
2019-02-23T07:21:30.743Z,99.90
2019-02-23T07:23:59.199Z,99.90
2019-02-23T07:26:27.679Z,99.90
2019-02-23T07:28:56.094Z,99.90
2019-02-23T07:31:24.659Z,99.90
2019-02-23T07:33:53.132Z,99.90
2019-02-23T07:36:21.609Z,99.90
2019-02-23T07:38:50.075Z,99.90
2019-02-23T07:41:18.492Z,99.90
2019-02-23T07:43:46.939Z,99.90
2019-02-23T07:46:15.360Z,99.90
2019-02-23T07:48:43.844Z,99.90
2019-02-23T07:54:01.039Z,99.90
2019-02-23T07:56:29.455Z,99.90
2019-02-23T07:58:58.178Z,99.90
2019-02-23T08:01:46.251Z,99.90
2019-02-23T08:04:27.387Z,99.90
2019-02-23T08:07:08.191Z,99.90
2019-02-23T08:09:36.772Z,99.90
2019-02-23T08:12:05.411Z,99.90
2019-02-23T08:14:34.098Z,99.90
2019-02-23T08:17:03.717Z,99.90
2019-02-23T08:19:44.875Z,99.90
2019-02-23T08:22:13.318Z,99.90
2019-02-23T08:24:41.795Z,99.90
2019-02-23T08:27:10.255Z,99.90
2019-02-23T08:29:38.675Z,99.90
2019-02-23T08:32:07.119Z,99.90
2019-02-23T08:34:54.880Z,99.90
2019-02-23T08:37:23.318Z,99.90
2019-02-23T08:39:51.741Z,99.90
2019-02-23T08:42:20.209Z,99.90
2019-02-23T08:44:48.727Z,99.90
2019-02-23T08:47:17.184Z,99.90
2019-02-23T08:49:45.644Z,99.90
2019-02-23T08:52:14.102Z,99.90
2019-02-23T08:54:42.519Z,99.90
2019-02-23T08:57:10.975Z,99.90
2019-02-23T08:59:39.390Z,99.90
2019-02-23T09:02:07.823Z,99.90
2019-02-23T09:04:55.615Z,99.90
2019-02-23T09:07:24.054Z,99.90
2019-02-23T09:09:52.584Z,99.90
2019-02-23T09:12:21.043Z,99.90
2019-02-23T09:14:49.568Z,99.90
2019-02-23T09:17:18.010Z,99.90
2019-02-23T09:20:28.596Z,99.90
2019-02-23T09:22:59.507Z,99.90
2019-02-23T09:25:19.558Z,99.90
2019-02-23T09:28:07.323Z,99.90
2019-02-23T09:30:48.100Z,99.90
2019-02-23T09:33:16.527Z,99.90
2019-02-23T09:35:44.986Z,99.90
2019-02-23T09:38:13.431Z,99.90
2019-02-23T09:40:41.941Z,99.90
2019-02-23T09:43:10.462Z,99.90
2019-02-23T09:45:38.934Z,99.90
2019-02-23T09:48:07.380Z,99.90
2019-02-23T09:50:35.850Z,99.90
2019-02-23T09:53:11.294Z,99.90
2019-02-23T09:55:34.487Z,99.90
2019-02-23T09:58:02.950Z,99.90
2019-02-23T10:00:50.722Z,99.90
2019-02-23T10:03:19.182Z,99.90
2019-02-23T10:05:47.636Z,99.90
2019-02-23T10:08:35.395Z,99.90
2019-02-23T10:11:03.853Z,99.90
2019-02-23T10:13:51.701Z,99.90
2019-02-23T10:16:20.124Z,99.90
2019-02-23T10:18:48.563Z,99.90
2019-02-23T10:21:36.326Z,99.90
2019-02-23T10:24:04.767Z,99.90
2019-02-23T10:26:33.178Z,99.90
2019-02-23T10:29:01.669Z,99.90
2019-02-23T10:31:30.122Z,99.90
2019-02-23T10:33:58.566Z,99.90
2019-02-23T10:36:26.982Z,99.90
2019-02-23T10:39:14.763Z,99.90
2019-02-23T10:41:43.181Z,99.90
2019-02-23T10:44:30.974Z,99.90
2019-02-23T10:46:59.473Z,99.90
2019-02-23T10:49:27.925Z,99.90
2019-02-23T10:51:56.435Z,99.90
2019-02-23T10:54:44.202Z,99.90
2019-02-23T10:57:12.610Z,99.90
2019-02-23T10:59:41.070Z,99.90
2019-02-23T11:02:28.858Z,99.90
2019-02-23T11:04:57.315Z,99.90
2019-02-23T11:07:25.813Z,99.90
2019-02-23T11:09:54.240Z,99.90
2019-02-23T11:12:22.698Z,99.90
2019-02-23T11:14:51.106Z,99.90
2019-02-23T11:17:19.538Z,99.90
2019-02-23T11:19:47.956Z,99.90
2019-02-23T11:22:16.386Z,99.90
2019-02-23T11:25:05.150Z,99.90
2019-02-23T11:27:53.059Z,99.90
2019-02-23T11:30:21.484Z,99.90
2019-02-23T11:32:49.922Z,99.90
2019-02-23T11:35:18.348Z,99.90
2019-02-23T11:37:46.796Z,99.90
2019-02-23T11:40:16.394Z,99.90
2019-02-23T11:43:04.261Z,99.90
2019-02-23T11:45:52.026Z,99.90
2019-02-23T11:48:20.495Z,99.90
2019-02-23T11:50:48.909Z,99.90
2019-02-23T11:53:36.705Z,99.80
2019-02-23T11:56:05.124Z,99.50
2019-02-23T11:58:52.907Z,99.30
2019-02-23T12:01:33.421Z,99.20
2019-02-23T12:04:14.233Z,98.70
2019-02-23T12:06:42.664Z,98.60
2019-02-23T12:09:11.800Z,98.10
2019-02-23T12:11:40.262Z,97.60
2019-02-23T12:14:08.946Z,97.60
2019-02-23T12:16:39.039Z,97.30
2019-02-23T12:19:07.679Z,97.30
2019-02-23T12:21:36.191Z,97.30
2019-02-23T12:24:06.379Z,96.90
2019-02-23T12:26:36.493Z,96.60
2019-02-23T12:29:05.088Z,96.30
2019-02-23T12:31:33.992Z,96.30
2019-02-23T12:34:02.475Z,96.10
2019-02-23T12:36:30.934Z,96.10
2019-02-23T12:38:59.385Z,95.80
2019-02-23T12:41:33.121Z,95.70
2019-02-23T12:44:01.600Z,95.80
2019-02-23T12:46:33.171Z,95.40
2019-02-23T12:49:02.009Z,95.30
2019-02-23T12:51:30.759Z,94.80
2019-02-23T12:54:18.567Z,94.80
2019-02-23T12:57:06.792Z,94.90
2019-02-23T12:59:35.383Z,95.10
2019-02-23T13:02:23.277Z,94.80
2019-02-23T13:04:51.726Z,94.60
2019-02-23T13:07:20.162Z,94.60
2019-02-23T13:09:49.977Z,94.40
2019-02-23T13:12:25.085Z,94.40
2019-02-23T13:15:14.736Z,94.30
2019-02-23T13:18:19.738Z,94.10
2019-02-23T13:21:09.081Z,93.80
2019-02-23T13:23:55.208Z,93.80
2019-02-23T13:26:47.488Z,93.50
2019-02-23T13:29:34.049Z,93.30
2019-02-23T13:32:23.787Z,93.10
2019-02-23T13:35:19.070Z,93.20
2019-02-23T13:38:11.537Z,92.60
2019-02-23T13:41:01.614Z,92.20
2019-02-23T13:43:50.044Z,91.50
2019-02-23T13:46:42.460Z,91.00
2019-02-23T13:49:40.970Z,91.00
2019-02-23T13:52:12.867Z,90.80
2019-02-23T13:55:02.555Z,91.10
2019-02-23T13:57:43.087Z,90.80
2019-02-23T14:00:35.207Z,88.90
2019-02-23T14:03:36.676Z,80.00
2019-02-23T14:06:46.794Z,69.50
2019-02-23T14:09:51.720Z,64.80
2019-02-23T14:12:44.165Z,59.10
2019-02-23T14:15:41.561Z,50.80
2019-02-23T14:18:22.511Z,46.50
2019-02-23T14:21:03.972Z,46.20
2019-02-23T14:23:44.655Z,45.00
2019-02-23T14:26:27.292Z,42.20
2019-02-23T14:29:01.586Z,42.80
2019-02-23T14:31:44.842Z,40.50
2019-02-23T14:34:37.028Z,40.60
2019-02-23T14:37:14.407Z,39.90
2019-02-23T14:46:49.164Z,36.50
2019-02-23T14:49:30.064Z,35.80
2019-02-23T14:52:10.727Z,34.90
2019-02-23T14:55:00.742Z,35.10
2019-02-23T14:57:26.498Z,33.40
2019-02-23T15:00:25.394Z,33.60
2019-02-23T15:03:29.763Z,34.10
2019-02-23T15:06:37.305Z,32.20
2019-02-23T15:09:43.126Z,32.90
2019-02-23T15:12:38.640Z,32.60
2019-02-23T15:15:28.044Z,33.10
2019-02-23T15:18:35.953Z,32.80
2019-02-23T15:21:16.876Z,33.40
2019-02-23T15:23:58.260Z,34.30
2019-02-23T15:26:59.459Z,33.80
2019-02-23T15:29:51.706Z,33.90
2019-02-23T15:32:57.957Z,34.20
2019-02-23T15:35:41.438Z,34.80
2019-02-23T15:38:32.167Z,35.40
2019-02-23T15:41:27.906Z,35.40
2019-02-23T15:44:09.120Z,36.00
2019-02-23T15:46:46.879Z,36.30
2019-02-23T15:49:34.809Z,36.40
2019-02-23T15:52:06.296Z,37.30
2019-02-23T15:54:43.729Z,38.10
2019-02-23T15:57:12.382Z,38.40
2019-02-23T15:59:44.144Z,39.00
2019-02-23T16:02:11.130Z,39.80
2019-02-23T16:04:39.942Z,40.30
2019-02-23T16:07:27.830Z,40.20
2019-02-23T16:10:17.816Z,40.50
2019-02-23T16:12:58.833Z,40.70
2019-02-23T16:15:27.446Z,40.60
2019-02-23T16:17:55.922Z,41.10
2019-02-23T16:20:24.359Z,41.60
2019-02-23T16:22:52.792Z,42.20
2019-02-23T16:25:21.267Z,42.90
2019-02-23T16:27:49.722Z,43.40
2019-02-23T16:30:18.164Z,43.80
2019-02-23T16:32:46.626Z,44.40
2019-02-23T16:35:34.411Z,44.90
2019-02-23T16:38:02.826Z,45.30
2019-02-23T16:40:31.356Z,45.70
2019-02-23T16:43:12.038Z,46.50
2019-02-23T16:45:40.880Z,46.70
2019-02-23T16:48:09.800Z,47.10
2019-02-23T16:50:38.313Z,47.60
2019-02-23T16:53:06.839Z,48.20
2019-02-23T16:55:54.621Z,48.50
2019-02-23T16:58:23.109Z,48.80
2019-02-23T17:00:51.555Z,49.20
2019-02-23T17:03:39.343Z,49.60
2019-02-23T17:06:07.928Z,50.00
2019-02-23T17:08:55.726Z,50.50
2019-02-23T17:11:24.222Z,50.80
2019-02-23T17:13:53.061Z,51.40
2019-02-23T17:16:41.167Z,51.70
2019-02-23T17:19:09.647Z,51.90
2019-02-23T17:24:52.394Z,52.70
2019-02-23T17:27:20.948Z,53.10
2019-02-23T17:29:49.372Z,53.60
2019-02-23T17:32:17.819Z,53.90
2019-02-23T17:34:46.300Z,54.50
2019-02-23T17:37:14.746Z,54.90
2019-02-23T17:40:02.513Z,55.30
2019-02-23T17:42:30.964Z,55.50
2019-02-23T17:45:05.396Z,56.00
2019-02-23T17:47:34.426Z,56.50
2019-02-23T17:50:03.344Z,56.70
2019-02-23T17:52:32.035Z,57.00
2019-02-23T17:55:02.223Z,57.30
2019-02-23T17:57:32.875Z,57.60
2019-02-23T18:00:03.726Z,57.80
2019-02-23T18:05:37.654Z,57.80
2019-02-23T18:08:06.106Z,57.90
2019-02-23T18:10:34.578Z,58.10
2019-02-23T18:13:03.037Z,58.30
2019-02-23T18:15:31.531Z,58.40
2019-02-23T18:18:08.743Z,58.50
2019-02-23T18:20:37.222Z,58.70
2019-02-23T18:23:05.651Z,58.80
2019-02-23T18:25:53.434Z,59.10
2019-02-23T18:28:21.886Z,59.10
2019-02-23T18:31:09.643Z,59.40
2019-02-23T18:33:38.090Z,59.40
2019-02-23T18:36:25.884Z,59.60
2019-02-23T18:38:54.336Z,59.50
2019-02-23T18:41:22.768Z,59.90
2019-02-23T18:44:10.559Z,60.00
2019-02-23T18:46:40.742Z,60.00
2019-02-23T18:49:10.623Z,60.20
2019-02-23T18:51:39.042Z,60.30
2019-02-23T18:54:07.594Z,60.60
2019-02-23T18:56:36.022Z,61.00
2019-02-23T18:59:04.611Z,61.10
2019-02-23T19:01:33.070Z,61.20
2019-02-23T19:04:01.489Z,61.50
2019-02-23T19:06:29.926Z,61.70
2019-02-23T19:08:58.385Z,62.00
2019-02-23T19:11:46.183Z,62.30
2019-02-23T19:14:33.947Z,62.40
2019-02-23T19:17:02.424Z,62.70
2019-02-23T19:19:50.291Z,63.10
2019-02-23T19:22:18.734Z,63.30
2019-02-23T19:24:47.209Z,65.00
2019-02-23T19:27:34.965Z,65.10
2019-02-23T19:30:04.180Z,65.20
2019-02-23T19:32:32.600Z,65.60
2019-02-23T19:35:01.122Z,66.80
2019-02-23T19:37:29.551Z,66.20
2019-02-23T19:39:58.006Z,66.60
2019-02-23T19:42:45.788Z,66.80
2019-02-23T19:45:14.233Z,67.00
2019-02-23T19:48:02.029Z,67.30
2019-02-23T19:53:27.132Z,67.70
2019-02-23T19:55:55.841Z,68.10
2019-02-23T19:58:24.310Z,68.40
2019-02-23T20:00:53.126Z,68.50
2019-02-23T20:03:23.200Z,68.80
2019-02-23T20:05:51.619Z,69.00
2019-02-23T20:08:20.071Z,69.40
2019-02-23T20:10:48.511Z,70.40
2019-02-23T20:13:16.997Z,69.90
2019-02-23T20:15:45.751Z,70.20
2019-02-23T20:18:16.711Z,70.40
2019-02-23T20:20:45.351Z,70.60
2019-02-23T20:23:15.200Z,70.90
2019-02-23T20:25:43.956Z,71.10
2019-02-23T20:28:12.921Z,71.30
2019-02-23T20:33:31.649Z,71.50
2019-02-23T20:36:00.589Z,71.60
2019-02-23T20:38:29.078Z,71.70
2019-02-23T20:40:58.885Z,71.50
2019-02-23T20:43:30.965Z,71.30
2019-02-23T20:45:59.906Z,71.20
2019-02-23T20:48:28.471Z,70.90
2019-02-23T20:50:57.154Z,71.00
2019-02-23T20:53:25.596Z,70.60
2019-02-23T20:55:55.363Z,70.30
2019-02-23T20:58:23.897Z,69.70
2019-02-23T21:00:53.025Z,69.40
2019-02-23T21:03:21.476Z,69.10
2019-02-23T21:06:09.626Z,68.60
2019-02-23T21:08:38.207Z,68.50
2019-02-23T21:11:06.965Z,68.10
2019-02-23T21:13:35.660Z,68.00
2019-02-23T21:16:04.680Z,67.40
2019-02-23T21:18:45.465Z,67.20
2019-02-23T21:21:13.892Z,66.80
2019-02-23T21:23:42.348Z,66.60
2019-02-23T21:26:10.861Z,66.40
2019-02-23T21:28:58.639Z,66.10
2019-02-23T21:31:27.086Z,65.80
2019-02-23T21:34:14.849Z,65.30
2019-02-23T21:36:43.322Z,65.10
2019-02-23T21:39:11.739Z,65.00
2019-02-23T21:41:40.155Z,64.90
2019-02-23T21:44:08.609Z,64.70
2019-02-23T21:46:37.019Z,64.30
2019-02-23T21:49:05.472Z,64.60
2019-02-23T21:51:33.894Z,63.60
2019-02-23T21:54:09.963Z,63.20
2019-02-23T21:56:51.846Z,63.30
2019-02-23T21:59:23.240Z,63.00
2019-02-23T22:02:11.201Z,62.80
2019-02-23T22:04:39.751Z,62.50
2019-02-23T22:07:08.171Z,62.40
2019-02-23T22:09:36.740Z,62.10
2019-02-23T22:12:24.570Z,62.10
2019-02-23T22:14:53.011Z,62.00
2019-02-23T22:17:21.559Z,61.90
2019-02-23T22:19:50.023Z,61.60
2019-02-23T22:22:37.786Z,61.30
2019-02-23T22:25:06.296Z,61.10
2019-02-23T22:27:34.754Z,60.90
2019-02-23T22:30:03.248Z,60.80
2019-02-23T22:32:51.029Z,60.80
2019-02-23T22:35:19.449Z,60.40
2019-02-23T22:37:47.887Z,60.50
2019-02-23T22:40:22.230Z,60.20
2019-02-23T22:42:50.666Z,60.10
2019-02-23T22:45:19.273Z,60.30
2019-02-23T22:47:47.787Z,60.60
2019-02-23T22:50:16.200Z,60.50
2019-02-23T22:52:44.617Z,60.40
2019-02-23T22:55:13.068Z,60.20
2019-02-23T22:57:41.699Z,60.30
2019-02-23T23:00:14.283Z,60.50
2019-02-23T23:02:42.706Z,60.20
2019-02-23T23:05:11.138Z,60.10
2019-02-23T23:07:39.591Z,60.00
2019-02-23T23:10:08.587Z,60.10
2019-02-23T23:12:37.095Z,60.20
2019-02-23T23:15:24.956Z,60.20
2019-02-23T23:17:53.382Z,60.20
2019-02-23T23:20:21.873Z,60.30
2019-02-23T23:22:59.058Z,60.20
2019-02-23T23:25:27.479Z,60.00
2019-02-23T23:27:55.921Z,60.20
2019-02-23T23:30:24.345Z,60.00
2019-02-23T23:32:52.784Z,59.90
2019-02-23T23:35:40.563Z,59.90
2019-02-23T23:38:09.062Z,59.80
2019-02-23T23:40:37.507Z,60.00
2019-02-23T23:43:05.935Z,60.00
2019-02-23T23:45:34.455Z,60.00
2019-02-23T23:48:02.869Z,60.00
2019-02-23T23:50:31.325Z,59.90
2019-02-23T23:52:59.741Z,59.80
2019-02-23T23:55:28.525Z,59.90
2019-02-23T23:57:58.602Z,59.90
